TimeCDT,TemperatureF,Dew PointF,Humidity,Sea Level PressureIn,VisibilityMPH,Wind Direction,Wind SpeedMPH,Gust SpeedMPH,PrecipitationIn,Events,Conditions,WindDirDegrees,DateUTC
12:53 AM,66.9,64.9,93,30.15,9.0,ENE,3.5,-,N/A,,Clear,60,2012-10-11 05:53:00
1:53 AM,66.9,64.9,93,30.15,9.0,Calm,Calm,-,N/A,,Clear,0,2012-10-11 06:53:00
2:53 AM,64.9,64.0,97,30.15,6.0,Calm,Calm,-,N/A,,Clear,0,2012-10-11 07:53:00
3:53 AM,64.0,63.0,96,30.15,6.0,Calm,Calm,-,N/A,,Clear,0,2012-10-11 08:53:00
4:53 AM,64.0,63.0,96,30.15,7.0,East,4.6,-,N/A,,Clear,90,2012-10-11 09:53:00
5:53 AM,62.1,62.1,100,30.17,5.0,Calm,Calm,-,N/A,,Clear,0,2012-10-11 10:53:00
6:53 AM,63.0,62.1,97,30.19,6.0,ENE,3.5,-,N/A,,Scattered Clouds,60,2012-10-11 11:53:00
7:53 AM,64.9,63.0,93,30.20,6.0,ENE,3.5,-,N/A,,Mostly Cloudy,60,2012-10-11 12:53:00
8:53 AM,69.1,64.9,87,30.22,8.0,East,4.6,-,N/A,,Clear,80,2012-10-11 13:53:00
9:53 AM,73.9,66.0,76,30.23,10.0,ENE,4.6,-,N/A,,Clear,70,2012-10-11 14:53:00
10:53 AM,79.0,66.0,64,30.23,10.0,SE,3.5,-,N/A,,Clear,140,2012-10-11 15:53:00
11:53 AM,82.0,64.9,56,30.22,10.0,SE,3.5,-,N/A,,Clear,140,2012-10-11 16:53:00
12:53 PM,82.9,63.0,51,30.20,10.0,Variable,4.6,-,N/A,,Clear,0,2012-10-11 17:53:00
1:53 PM,84.0,64.0,51,30.17,10.0,ESE,5.8,-,N/A,,Partly Cloudy,110,2012-10-11 18:53:00
2:53 PM,84.9,63.0,48,30.16,10.0,East,4.6,-,N/A,,Partly Cloudy,90,2012-10-11 19:53:00
3:53 PM,84.0,63.0,49,30.15,10.0,ENE,5.8,-,N/A,,Partly Cloudy,70,2012-10-11 20:53:00
4:53 PM,84.2,64.4,51,30.15,10.0,East,8.1,-,N/A,,Clear,100,2012-10-11 21:53:00
5:53 PM,81.0,63.0,54,30.15,10.0,SE,6.9,-,N/A,,Clear,130,2012-10-11 22:53:00
6:53 PM,75.9,63.0,64,30.17,10.0,ESE,4.6,-,N/A,,Clear,110,2012-10-11 23:53:00
7:53 PM,73.4,62.6,69,30.18,10.0,Calm,Calm,-,N/A,,Clear,0,2012-10-12 00:53:00
8:53 PM,70.0,64.0,81,30.18,10.0,Calm,Calm,-,N/A,,Clear,0,2012-10-12 01:53:00
9:53 PM,68.0,64.0,87,30.20,10.0,East,3.5,-,N/A,,Clear,80,2012-10-12 02:53:00
10:53 PM,68.0,64.0,87,30.20,10.0,Calm,Calm,-,N/A,,Clear,0,2012-10-12 03:53:00
11:53 PM,66.9,64.0,90,30.20,10.0,Calm,Calm,-,N/A,,Clear,0,2012-10-12 04:53:00